Terminal Aerodrome Forecast
Issued by NWS Buffalo, NY

Home | Current Version | Previous Version | Text Only | Print | Product List | Glossary On
Versions: 1 2 3 4 5 6 7 8 9 10 11 12 13 14 15 16 17 18 19 20 21 22 23 24 25 26
000
FTUS41 KBUF 062116 AAA
TAFROC
TAF AMD
KROC 062116Z 0621/0718 17011KT P6SM SCT035 BKN150
     FM070000 18009KT P6SM SCT020 BKN070
     FM071400 22008KT P6SM SCT130
     FM071700 22011KT P6SM VCSH SCT050 BKN200=

USA.gov is the U.S. government's official web portal to all federal, state and local government web resources and services.